createdAt,value
2019-05-28T00:02:08.784Z,3.37
2019-05-28T00:04:37.241Z,2.00
2019-05-28T00:07:05.839Z,3.30
2019-05-28T00:09:35.181Z,1.80
2019-05-28T00:12:05.220Z,2.37
2019-05-28T00:14:33.685Z,2.60
2019-05-28T00:17:03.673Z,3.93
2019-05-28T00:19:33.439Z,4.57
2019-05-28T00:22:01.889Z,2.70
2019-05-28T00:24:31.448Z,2.10
2019-05-28T00:27:00.341Z,2.40
2019-05-28T00:29:28.815Z,1.80
2019-05-28T00:31:58.391Z,1.90
2019-05-28T00:34:28.110Z,2.23
2019-05-28T00:36:57.300Z,3.40
2019-05-28T00:39:25.785Z,2.50
2019-05-28T00:41:55.162Z,2.40
2019-05-28T00:44:23.947Z,1.90
2019-05-28T00:46:53.373Z,2.30
2019-05-28T00:49:24.049Z,3.93
2019-05-28T00:51:54.037Z,2.50
2019-05-28T00:54:22.508Z,7.43
2019-05-28T00:56:52.843Z,4.87
2019-05-28T00:59:22.353Z,6.67
2019-05-28T01:01:51.232Z,2.63
2019-05-28T01:04:22.240Z,2.50
2019-05-28T01:06:52.934Z,3.63
2019-05-28T01:09:22.261Z,3.33
2019-05-28T01:11:50.719Z,3.40
2019-05-28T01:14:19.255Z,4.10
2019-05-28T01:16:47.775Z,4.40
2019-05-28T01:19:16.985Z,3.57
2019-05-28T01:21:46.756Z,3.77
2019-05-28T01:24:16.865Z,3.00
2019-05-28T01:26:45.393Z,3.97
2019-05-28T01:29:13.956Z,3.13
2019-05-28T01:31:43.103Z,5.87
2019-05-28T01:34:11.969Z,2.90
2019-05-28T01:36:40.428Z,4.03
2019-05-28T01:39:10.189Z,2.30
2019-05-28T01:41:39.373Z,3.07
2019-05-28T01:44:07.907Z,3.43
2019-05-28T01:46:36.480Z,3.30
2019-05-28T01:49:06.290Z,4.27
2019-05-28T01:51:35.600Z,3.67
2019-05-28T01:54:04.495Z,2.97
2019-05-28T01:56:32.949Z,2.67
2019-05-28T01:59:03.842Z,4.30
2019-05-28T02:01:32.421Z,2.70
2019-05-28T02:04:00.917Z,2.90
2019-05-28T02:06:29.426Z,3.40
2019-05-28T02:08:58.125Z,4.87
2019-05-28T02:11:26.648Z,3.20
2019-05-28T02:13:55.360Z,4.23
2019-05-28T02:16:23.830Z,3.13
2019-05-28T02:18:53.078Z,2.80
2019-05-28T02:21:21.542Z,3.53
2019-05-28T02:23:50.904Z,4.20
2019-05-28T02:26:19.374Z,3.57
2019-05-28T02:28:47.897Z,4.53
2019-05-28T02:31:27.492Z,3.27
2019-05-28T02:33:47.922Z,3.57
2019-05-28T02:36:16.379Z,6.23
2019-05-28T02:38:46.089Z,3.83
2019-05-28T02:41:14.648Z,4.70
2019-05-28T02:43:44.153Z,5.40
2019-05-28T02:46:14.055Z,6.87
2019-05-28T02:48:42.637Z,5.90
2019-05-28T02:51:13.169Z,4.90
2019-05-28T02:53:42.102Z,5.00
2019-05-28T02:56:12.754Z,4.10
2019-05-28T02:58:43.226Z,7.93
2019-05-28T03:01:11.732Z,4.23
2019-05-28T03:03:40.693Z,4.67
2019-05-28T03:06:10.706Z,5.57
2019-05-28T03:08:39.234Z,5.63
2019-05-28T03:11:07.753Z,5.20
2019-05-28T03:13:38.532Z,7.20
2019-05-28T03:16:07.205Z,6.70
2019-05-28T03:18:38.067Z,5.80
2019-05-28T03:21:07.619Z,5.50
2019-05-28T03:23:38.035Z,5.73
2019-05-28T03:26:06.342Z,5.67
2019-05-28T03:28:34.577Z,6.30
2019-05-28T03:31:03.427Z,6.00
2019-05-28T03:33:32.163Z,6.77
2019-05-28T03:36:04.800Z,6.73
2019-05-28T03:38:34.588Z,7.37
2019-05-28T03:41:05.289Z,8.50
2019-05-28T03:43:33.804Z,9.30
2019-05-28T03:46:02.454Z,9.13
2019-05-28T03:48:30.904Z,8.90
2019-05-28T03:51:00.503Z,7.07
2019-05-28T03:53:29.427Z,6.37
2019-05-28T03:55:58.149Z,6.27
2019-05-28T03:58:27.645Z,6.53
2019-05-28T04:00:56.785Z,7.17
2019-05-28T04:03:24.989Z,5.87
2019-05-28T04:05:53.384Z,4.53
2019-05-28T04:08:21.512Z,3.03
2019-05-28T04:10:50.054Z,4.57
2019-05-28T04:13:18.962Z,3.27
2019-05-28T04:15:48.734Z,3.13
2019-05-28T04:18:18.653Z,3.17
2019-05-28T04:20:48.484Z,3.20
2019-05-28T04:23:19.320Z,3.80
2019-05-28T04:25:47.545Z,4.20
2019-05-28T04:28:16.060Z,4.10
2019-05-28T04:30:45.324Z,4.20
2019-05-28T04:33:14.593Z,5.83
2019-05-28T04:35:43.061Z,4.20
2019-05-28T04:38:12.989Z,4.73
2019-05-28T04:40:41.607Z,6.87
2019-05-28T04:43:10.864Z,5.57
2019-05-28T04:45:41.833Z,5.67
2019-05-28T04:48:10.301Z,8.13
2019-05-28T04:50:40.821Z,9.53
2019-05-28T04:53:11.501Z,9.53
2019-05-28T04:55:41.537Z,7.37
2019-05-28T04:58:10.710Z,5.77
2019-05-28T05:00:39.211Z,5.40
2019-05-28T05:03:08.052Z,6.87
2019-05-28T05:05:36.502Z,6.07
2019-05-28T05:08:06.246Z,6.13
2019-05-28T05:10:34.756Z,8.77
2019-05-28T05:13:03.870Z,6.10
2019-05-28T05:15:32.316Z,5.73
2019-05-28T05:18:00.776Z,6.43
2019-05-28T05:20:29.497Z,6.70
2019-05-28T05:22:57.968Z,6.60
2019-05-28T05:25:27.517Z,6.53
2019-05-28T05:27:56.541Z,6.60
2019-05-28T05:30:26.100Z,7.03
2019-05-28T05:32:55.060Z,6.13
2019-05-28T05:35:25.025Z,7.70
2019-05-28T05:37:56.534Z,7.17
2019-05-28T05:40:25.454Z,6.10
2019-05-28T05:42:56.065Z,8.50
2019-05-28T05:45:25.982Z,6.20
2019-05-28T05:47:56.092Z,9.67
2019-05-28T05:50:27.958Z,9.10
2019-05-28T05:52:56.675Z,7.70
2019-05-28T05:55:25.197Z,9.10
2019-05-28T05:57:54.921Z,7.50
2019-05-28T06:00:23.484Z,6.07
2019-05-28T06:02:52.400Z,8.60
2019-05-28T06:05:20.868Z,4.47
2019-05-28T06:07:50.200Z,5.10
2019-05-28T06:10:38.411Z,4.97
2019-05-28T06:13:06.864Z,5.00
2019-05-28T06:15:36.076Z,5.27
2019-05-28T06:18:07.429Z,5.27
2019-05-28T06:20:35.863Z,5.83
2019-05-28T06:23:04.506Z,5.37
2019-05-28T06:25:33.379Z,5.63
2019-05-28T06:28:01.839Z,5.70
2019-05-28T06:30:31.109Z,5.67
2019-05-28T06:33:02.132Z,6.33
2019-05-28T06:35:32.905Z,6.47
2019-05-28T06:38:01.609Z,5.80
2019-05-28T06:40:30.177Z,5.23
2019-05-28T06:42:59.681Z,7.53
2019-05-28T06:45:29.381Z,5.37
2019-05-28T06:47:59.536Z,7.00
2019-05-28T06:50:28.068Z,8.83
2019-05-28T06:52:56.521Z,6.57
2019-05-28T06:55:24.989Z,8.27
2019-05-28T06:57:54.698Z,8.37
2019-05-28T07:00:23.804Z,14.30
2019-05-28T07:02:55.409Z,10.53
2019-05-28T07:05:24.157Z,13.97
2019-05-28T07:07:52.621Z,7.23
2019-05-28T07:10:21.588Z,7.87
2019-05-28T07:12:50.072Z,12.17
2019-05-28T07:15:19.577Z,9.17
2019-05-28T07:17:49.317Z,11.87
2019-05-28T07:20:20.062Z,11.63
2019-05-28T07:22:49.714Z,11.33
2019-05-28T07:25:19.997Z,11.03
2019-05-28T07:27:48.460Z,15.10
2019-05-28T07:30:17.074Z,11.37
2019-05-28T07:32:45.902Z,10.23
2019-05-28T07:35:16.725Z,9.87
2019-05-28T07:37:45.996Z,9.80
2019-05-28T07:40:30.332Z,10.47
2019-05-28T07:42:46.216Z,11.73
2019-05-28T07:45:15.814Z,11.00
2019-05-28T07:47:45.445Z,13.37
2019-05-28T07:50:14.920Z,11.30
2019-05-28T07:52:44.021Z,10.43
2019-05-28T07:55:12.736Z,10.93
2019-05-28T07:57:41.268Z,8.93
2019-05-28T08:00:11.393Z,7.93
2019-05-28T08:02:39.900Z,8.07
2019-05-28T08:05:08.457Z,10.73
2019-05-28T08:07:36.907Z,9.07
2019-05-28T08:10:07.575Z,11.87
2019-05-28T08:12:37.197Z,12.90
2019-05-28T08:15:06.931Z,10.77
2019-05-28T08:17:35.716Z,8.93
2019-05-28T08:20:04.980Z,9.43
2019-05-28T08:22:42.512Z,10.57
2019-05-28T08:25:43.619Z,9.90
2019-05-28T08:27:54.057Z,7.97
2019-05-28T08:30:22.597Z,6.83
2019-05-28T08:32:51.232Z,6.70
2019-05-28T08:35:19.830Z,10.50
2019-05-28T08:37:48.527Z,4.17
2019-05-28T08:40:17.112Z,6.67
2019-05-28T08:42:45.919Z,4.47
2019-05-28T08:45:14.893Z,4.47
2019-05-28T08:47:43.409Z,3.13
2019-05-28T08:50:12.327Z,5.00
2019-05-28T08:52:40.982Z,4.00
2019-05-28T08:55:09.698Z,10.60
2019-05-28T08:57:39.031Z,6.47
2019-05-28T09:00:10.726Z,6.63
2019-05-28T09:02:39.905Z,4.63
2019-05-28T09:05:25.089Z,4.90
2019-05-28T09:07:40.051Z,3.30
2019-05-28T09:10:08.733Z,2.17
2019-05-28T09:12:37.203Z,4.87
2019-05-28T09:15:07.560Z,5.13
2019-05-28T09:17:36.067Z,7.03
2019-05-28T09:20:06.250Z,2.83
2019-05-28T09:22:35.149Z,2.07
2019-05-28T09:25:06.411Z,2.43
2019-05-28T09:27:34.951Z,2.87
2019-05-28T09:30:05.211Z,4.03
2019-05-28T09:32:33.777Z,7.70
2019-05-28T09:35:02.986Z,4.17
2019-05-28T09:37:31.573Z,2.57
2019-05-28T09:40:00.053Z,3.30
2019-05-28T09:42:28.569Z,1.43
2019-05-28T09:44:57.026Z,3.50
2019-05-28T09:47:25.855Z,2.53
2019-05-28T09:49:56.329Z,7.43
2019-05-28T09:52:25.001Z,4.63
2019-05-28T09:54:53.785Z,5.93
2019-05-28T09:57:22.308Z,2.40
2019-05-28T09:59:50.966Z,3.20
2019-05-28T10:02:19.839Z,2.83
2019-05-28T10:04:50.152Z,2.47
2019-05-28T10:07:18.682Z,3.70
2019-05-28T10:09:47.256Z,3.50
2019-05-28T10:12:15.800Z,3.00
2019-05-28T10:14:44.552Z,3.97
2019-05-28T10:17:13.061Z,2.40
2019-05-28T10:19:41.844Z,2.57
2019-05-28T10:22:10.555Z,1.87
2019-05-28T10:24:39.066Z,2.20
2019-05-28T10:27:07.914Z,3.73
2019-05-28T10:29:36.515Z,3.50
2019-05-28T10:32:05.637Z,2.53
2019-05-28T10:34:34.380Z,4.70
2019-05-28T10:37:03.728Z,2.23
2019-05-28T10:39:32.568Z,2.80
2019-05-28T10:42:01.169Z,2.37
2019-05-28T10:44:29.723Z,4.47
2019-05-28T10:46:58.258Z,2.47
2019-05-28T10:49:27.231Z,3.57
2019-05-28T10:51:55.710Z,3.50
2019-05-28T10:54:24.229Z,1.43
2019-05-28T10:56:52.862Z,2.10
2019-05-28T10:59:21.334Z,6.00
2019-05-28T11:01:49.787Z,2.00
2019-05-28T11:04:18.306Z,2.33
2019-05-28T11:06:51.971Z,2.97
2019-05-28T11:09:17.176Z,4.57
2019-05-28T11:11:45.674Z,3.30
2019-05-28T11:14:14.143Z,2.30
2019-05-28T11:16:42.661Z,4.13
2019-05-28T11:19:11.285Z,3.73
2019-05-28T11:21:39.763Z,2.40
2019-05-28T11:24:08.507Z,2.87
2019-05-28T11:26:37.212Z,1.27
2019-05-28T11:29:05.811Z,2.20
2019-05-28T11:31:34.750Z,3.57
2019-05-28T11:34:03.264Z,4.00
2019-05-28T11:36:31.717Z,2.30
2019-05-28T11:39:00.262Z,3.53
2019-05-28T11:41:41.409Z,2.27
2019-05-28T11:43:59.227Z,5.10
2019-05-28T11:46:28.618Z,6.13
2019-05-28T11:48:57.156Z,3.03
2019-05-28T11:51:25.880Z,5.33
2019-05-28T11:53:54.341Z,2.57
2019-05-28T11:56:23.118Z,3.73
2019-05-28T11:58:51.596Z,4.13
2019-05-28T12:01:33.761Z,4.37
2019-05-28T12:03:51.304Z,2.87
2019-05-28T12:06:20.251Z,6.57
2019-05-28T12:08:48.828Z,5.07
2019-05-28T12:11:17.589Z,3.53
2019-05-28T12:13:46.542Z,2.57
2019-05-28T12:16:15.034Z,3.23
2019-05-28T12:18:43.666Z,5.13
2019-05-28T12:21:12.336Z,8.20
2019-05-28T12:23:40.872Z,2.07
2019-05-28T12:26:09.604Z,4.73
2019-05-28T12:28:38.641Z,2.60
2019-05-28T12:31:07.306Z,1.67
2019-05-28T12:33:36.046Z,2.67
2019-05-28T12:36:05.733Z,3.53
2019-05-28T12:38:34.433Z,6.17
2019-05-28T12:41:03.041Z,2.30
2019-05-28T12:43:31.637Z,3.43
2019-05-28T12:46:00.372Z,3.00
2019-05-28T12:48:29.531Z,4.27
2019-05-28T12:51:02.066Z,3.13
2019-05-28T12:53:48.097Z,2.87
2019-05-28T12:55:58.988Z,3.97
2019-05-28T12:58:41.791Z,3.33
2019-05-28T13:00:58.105Z,3.03
2019-05-28T13:03:26.708Z,4.20
2019-05-28T13:05:55.255Z,4.03
2019-05-28T13:08:23.773Z,4.10
2019-05-28T13:10:52.234Z,4.93
2019-05-28T13:13:20.970Z,4.30
2019-05-28T13:15:50.024Z,5.93
2019-05-28T13:18:18.684Z,4.40
2019-05-28T13:20:48.231Z,4.30
2019-05-28T13:23:16.978Z,2.73
2019-05-28T13:25:46.025Z,5.53
2019-05-28T13:28:15.036Z,4.60
2019-05-28T13:30:43.563Z,4.80
2019-05-28T13:33:12.611Z,3.57
2019-05-28T13:35:41.146Z,6.53
2019-05-28T13:38:25.622Z,6.57
2019-05-28T13:40:39.968Z,4.63
2019-05-28T13:43:08.524Z,3.97
2019-05-28T13:45:37.046Z,3.33
2019-05-28T13:48:05.787Z,5.17
2019-05-28T13:50:34.245Z,4.70
2019-05-28T13:53:02.830Z,2.80
2019-05-28T13:55:31.370Z,6.97
2019-05-28T13:58:00.879Z,3.40
2019-05-28T14:00:31.236Z,2.27
2019-05-28T14:03:00.205Z,3.23
2019-05-28T14:05:29.067Z,2.73
2019-05-28T14:07:57.577Z,3.17
2019-05-28T14:10:26.501Z,4.93
2019-05-28T14:12:55.256Z,4.80
2019-05-28T14:15:24.451Z,2.70
2019-05-28T14:17:53.052Z,7.27
2019-05-28T14:20:22.158Z,2.93
2019-05-28T14:22:50.867Z,4.20
2019-05-28T14:25:19.517Z,3.00
2019-05-28T14:27:48.191Z,4.80
2019-05-28T14:30:19.244Z,6.43
2019-05-28T14:32:48.603Z,2.93
2019-05-28T14:35:17.603Z,3.17
2019-05-28T14:37:46.069Z,4.63
2019-05-28T14:40:15.669Z,2.87
2019-05-28T14:42:44.356Z,3.63
2019-05-28T14:45:14.498Z,3.57
2019-05-28T14:47:43.042Z,3.17
2019-05-28T14:50:12.160Z,4.73
2019-05-28T14:52:41.196Z,4.03
2019-05-28T14:55:10.269Z,3.33
2019-05-28T14:57:39.451Z,4.23
2019-05-28T15:00:16.905Z,4.17
2019-05-28T15:02:45.475Z,5.80
2019-05-28T15:05:14.867Z,8.77
2019-05-28T15:07:44.208Z,3.87
2019-05-28T15:10:14.565Z,3.23
2019-05-28T15:12:43.121Z,3.23
2019-05-28T15:15:13.270Z,6.17
2019-05-28T15:17:42.556Z,4.93
2019-05-28T15:20:14.767Z,2.83
2019-05-28T15:22:43.644Z,3.90
2019-05-28T15:25:12.605Z,3.83
2019-05-28T15:27:41.209Z,4.17
2019-05-28T15:30:12.572Z,4.97
2019-05-28T15:32:41.068Z,3.10
2019-05-28T15:35:10.669Z,5.07
2019-05-28T15:37:40.030Z,5.93
2019-05-28T15:40:09.956Z,5.10
2019-05-28T15:42:38.512Z,3.13
2019-05-28T15:45:11.150Z,1.67
2019-05-28T15:47:39.856Z,4.40
2019-05-28T15:50:08.664Z,5.33
2019-05-28T15:52:37.307Z,2.43
2019-05-28T15:55:07.499Z,3.50
2019-05-28T15:57:36.094Z,11.20
2019-05-28T16:00:10.881Z,3.27
2019-05-28T16:02:58.972Z,2.50
2019-05-28T16:05:27.827Z,5.27
2019-05-28T16:07:56.975Z,4.73
2019-05-28T16:10:25.797Z,5.27
2019-05-28T16:12:54.397Z,6.13
2019-05-28T16:15:23.191Z,3.33
2019-05-28T16:17:51.782Z,1.60
2019-05-28T16:20:20.577Z,4.50
2019-05-28T16:22:49.069Z,5.90
2019-05-28T16:25:18.707Z,2.37
2019-05-28T16:27:47.264Z,2.77
2019-05-28T16:30:16.459Z,3.70
2019-05-28T16:32:45.031Z,6.30
2019-05-28T16:35:13.971Z,2.57
2019-05-28T16:37:42.905Z,3.13
2019-05-28T16:40:16.230Z,2.57
2019-05-28T16:42:43.101Z,2.97
2019-05-28T16:45:13.599Z,9.77
2019-05-28T16:47:42.096Z,3.73
2019-05-28T16:50:13.409Z,5.90
2019-05-28T16:52:41.329Z,5.23
2019-05-28T16:55:30.791Z,3.00
2019-05-28T16:57:59.382Z,2.97
2019-05-28T17:00:28.143Z,3.50
2019-05-28T17:02:57.000Z,9.30
2019-05-28T17:05:25.528Z,3.97
2019-05-28T17:07:54.001Z,5.20
2019-05-28T17:10:32.150Z,2.33
2019-05-28T17:12:52.639Z,4.00
2019-05-28T17:15:21.261Z,5.47
2019-05-28T17:17:50.161Z,3.67
2019-05-28T17:20:19.670Z,6.50
2019-05-28T17:22:48.205Z,4.10
2019-05-28T17:25:17.328Z,3.17
2019-05-28T17:27:46.053Z,2.93
2019-05-28T17:30:20.580Z,2.67
2019-05-28T17:32:44.841Z,3.17
2019-05-28T17:35:13.410Z,2.77
2019-05-28T17:37:42.105Z,2.20
2019-05-28T17:40:11.550Z,4.53
2019-05-28T17:42:40.267Z,3.57
2019-05-28T17:45:09.167Z,3.27
2019-05-28T17:47:43.136Z,5.13
2019-05-28T17:50:08.462Z,2.57
2019-05-28T17:52:37.180Z,4.07
2019-05-28T17:55:06.209Z,6.77
2019-05-28T17:57:35.645Z,3.73
2019-05-28T18:00:07.739Z,5.17
2019-05-28T18:02:36.311Z,5.10
2019-05-28T18:05:05.973Z,3.17
2019-05-28T18:07:34.672Z,3.57
2019-05-28T18:10:05.437Z,4.37
2019-05-28T18:12:34.045Z,2.63
2019-05-28T18:15:02.862Z,3.00
2019-05-28T18:17:31.331Z,2.47
2019-05-28T18:19:59.968Z,1.53
2019-05-28T18:22:29.049Z,5.43
2019-05-28T18:24:57.612Z,1.67
2019-05-28T18:27:26.142Z,2.63
2019-05-28T18:29:54.629Z,3.90
2019-05-28T18:32:23.169Z,1.83
2019-05-28T18:34:51.625Z,4.77
2019-05-28T18:37:20.123Z,2.40
2019-05-28T18:39:48.657Z,3.10
2019-05-28T18:42:17.272Z,3.30
2019-05-28T18:44:45.801Z,3.70
2019-05-28T18:47:14.266Z,4.13
2019-05-28T18:49:43.189Z,5.33
2019-05-28T18:52:11.788Z,4.53
2019-05-28T18:54:40.339Z,3.87
2019-05-28T18:57:08.838Z,2.03
2019-05-28T18:59:37.486Z,2.67
2019-05-28T19:02:06.048Z,1.70
2019-05-28T19:04:34.522Z,2.87
2019-05-28T19:07:03.049Z,2.80
2019-05-28T19:09:31.815Z,1.73
2019-05-28T19:12:00.420Z,2.40
2019-05-28T19:14:29.070Z,2.43
2019-05-28T19:16:57.593Z,3.40
2019-05-28T19:19:26.331Z,1.80
2019-05-28T19:21:54.934Z,2.27
2019-05-28T19:24:23.456Z,2.10
2019-05-28T19:26:52.203Z,1.67
2019-05-28T19:29:20.738Z,2.53
2019-05-28T19:31:49.377Z,1.10
2019-05-28T19:34:17.867Z,1.53
2019-05-28T19:36:46.669Z,2.33
2019-05-28T19:39:15.759Z,1.10
2019-05-28T19:41:53.774Z,1.50
2019-05-28T19:44:14.785Z,3.00
2019-05-28T19:46:43.269Z,2.37
2019-05-28T19:49:11.808Z,1.47
2019-05-28T19:51:40.262Z,6.27
2019-05-28T19:54:08.796Z,2.60
2019-05-28T19:59:48.142Z,2.23
2019-05-28T20:02:16.577Z,2.63
2019-05-28T20:04:45.011Z,1.67
2019-05-28T20:07:13.549Z,3.83
2019-05-28T20:09:42.095Z,0.90
2019-05-28T20:12:12.702Z,1.77
2019-05-28T20:14:40.708Z,2.07
2019-05-28T20:17:09.146Z,1.83
2019-05-28T20:19:37.561Z,1.90
2019-05-28T20:23:03.224Z,3.47
2019-05-28T20:25:32.080Z,5.72
2019-05-28T20:28:00.609Z,0.93
2019-05-28T20:30:30.604Z,4.50
2019-05-28T20:32:59.196Z,1.77
2019-05-28T20:35:30.946Z,3.70
2019-05-28T20:38:05.484Z,1.30
2019-05-28T20:40:31.126Z,1.00
2019-05-28T20:42:59.959Z,1.10
2019-05-28T20:45:28.487Z,3.37
2019-05-28T20:47:58.344Z,3.90
2019-05-28T20:50:26.822Z,1.40
2019-05-28T20:52:56.224Z,1.70
2019-05-28T20:55:25.945Z,2.00
2019-05-28T20:57:55.311Z,1.30
2019-05-28T21:00:24.262Z,1.37
2019-05-28T21:02:53.871Z,1.20
2019-05-28T21:05:22.569Z,2.23
2019-05-28T21:07:53.004Z,2.80
2019-05-28T21:10:21.355Z,2.93
2019-05-28T21:12:54.801Z,2.57
2019-05-28T21:15:23.435Z,1.53
2019-05-28T21:17:53.031Z,1.63
2019-05-28T21:20:21.555Z,2.23
2019-05-28T21:22:49.986Z,0.90
2019-05-28T21:25:18.429Z,2.17
2019-05-28T21:28:52.125Z,4.47
2019-05-28T21:32:13.997Z,1.37
2019-05-28T21:41:01.770Z,2.40
2019-05-28T21:43:46.646Z,1.47
2019-05-28T21:46:15.133Z,3.17
2019-05-28T21:48:43.556Z,8.83
2019-05-28T21:51:12.078Z,3.53
2019-05-28T21:53:40.849Z,1.60
2019-05-28T21:56:09.996Z,3.10
2019-05-28T21:58:38.845Z,1.73
2019-05-28T22:01:16.600Z,4.53
2019-05-28T22:04:04.645Z,1.17
2019-05-28T22:06:33.622Z,3.60
2019-05-28T22:09:02.145Z,2.53
2019-05-28T22:11:30.560Z,1.30
2019-05-28T22:14:00.044Z,5.07
2019-05-28T22:16:29.069Z,1.43
2019-05-28T22:18:58.237Z,1.63
2019-05-28T22:21:27.154Z,2.83
2019-05-28T22:23:56.345Z,2.70
2019-05-28T22:26:25.118Z,1.90
2019-05-28T22:28:53.618Z,3.53
2019-05-28T22:31:22.047Z,3.33
2019-05-28T22:33:50.652Z,2.87
2019-05-28T22:36:19.305Z,1.67
2019-05-28T22:38:49.439Z,4.53
2019-05-28T22:41:18.193Z,2.03
2019-05-28T22:43:46.612Z,2.90
2019-05-28T22:46:15.368Z,3.27
2019-05-28T22:48:43.833Z,5.20
2019-05-28T22:51:12.241Z,3.20
2019-05-28T22:53:40.874Z,2.90
2019-05-28T22:56:09.506Z,3.33
2019-05-28T22:58:38.150Z,3.13
2019-05-28T23:01:06.770Z,2.57
2019-05-28T23:03:35.256Z,2.20
2019-05-28T23:06:03.860Z,3.93
2019-05-28T23:08:32.786Z,4.87
2019-05-28T23:11:03.777Z,2.77
2019-05-28T23:13:45.906Z,4.57
2019-05-28T23:16:04.358Z,7.47
2019-05-28T23:18:32.885Z,3.03
2019-05-28T23:21:02.571Z,3.10
2019-05-28T23:23:31.568Z,3.27
2019-05-28T23:26:01.246Z,1.70
2019-05-28T23:28:29.809Z,1.67
2019-05-28T23:30:58.219Z,2.00
2019-05-28T23:33:27.073Z,2.23
2019-05-28T23:35:55.961Z,2.00
2019-05-28T23:38:24.457Z,3.53
2019-05-28T23:40:53.493Z,2.53
2019-05-28T23:43:41.299Z,2.87
2019-05-28T23:46:09.971Z,2.60
2019-05-28T23:48:38.992Z,3.37
2019-05-28T23:51:08.367Z,2.87
2019-05-28T23:53:36.908Z,2.10
2019-05-28T23:56:05.602Z,3.23
2019-05-28T23:58:34.510Z,2.00
